Angola, Kansas
Current Conditions -  °F | °C
As of 7:01 AM on Friday 31 Oct 2014 (Local Time) from KCFV Reporting Station
Broken Clouds Broken Clouds  
Wind Chill: 43°   Ceiling: 2500
Heat Index: 48°   Visibility: 10mi
Dew Point: 39°   Wind: 10mph
Humidity: 71%   Direction: 360°N
Pressure: 30.33"   Gusts: 23mph
Location:  37.067°N, 95.5817°W
Report Text: KCFV 311201Z AUTO 36009G20KT 10SM BKN025 09/04 A3033 RMK AO2 T00890039
Loading
Personal Weather Stations






























Interactive Weather Map
Tropical Storm Tracking
New forecast layout! Learn more

10-Day Weather Forecast

Advertisements
Track Severe Weather on mobile